Time;durP1;ratioP1;P1;durP2;ratioP2;P2;SDS_P1;SDS_P2;PMS_P1;PMS_P2;Temp;Humidity;BMP_temperature;BMP_pressure;BME280_temperature;BME280_humidity;BME280_pressure;Samples;Min_cycle;Max_cycle;Signal;HPM_P1;HPM_P2
2021/06/24 00:00:58;;;;;;;11.13;8.23;;;16.20;94.00;;;;;;5094929;28;20187;-84
2021/06/24 00:03:28;;;;;;;12.53;7.77;;;16.20;93.60;;;;;;5095213;28;20290;-82
2021/06/24 00:05:55;;;;;;;13.07;8.23;;;16.20;93.30;;;;;;5094447;28;20167;-84
2021/06/24 00:08:21;;;;;;;12.93;7.87;;;16.10;93.50;;;;;;5093733;28;20186;-85
2021/06/24 00:10:48;;;;;;;12.83;7.93;;;16.10;94.00;;;;;;5094330;28;20167;-82
2021/06/24 00:13:15;;;;;;;10.43;8.40;;;16.10;94.00;;;;;;5095483;28;20253;-83
2021/06/24 00:15:41;;;;;;;12.83;7.90;;;16.20;94.10;;;;;;5093800;28;20274;-83
2021/06/24 00:18:07;;;;;;;10.57;7.57;;;16.20;93.90;;;;;;5097567;28;20171;-83
2021/06/24 00:20:34;;;;;;;10.47;7.87;;;16.30;93.80;;;;;;5098132;28;20163;-81
2021/06/24 00:23:00;;;;;;;10.37;7.67;;;16.20;93.50;;;;;;5098169;28;20215;-83
2021/06/24 00:25:25;;;;;;;11.63;7.23;;;16.20;93.60;;;;;;5106291;28;20175;-83
2021/06/24 00:27:51;;;;;;;12.53;7.90;;;16.30;92.50;;;;;;5088252;28;20162;-81
2021/06/24 00:30:18;;;;;;;11.70;8.10;;;16.30;92.60;;;;;;5111760;28;20234;-83
2021/06/24 00:32:43;;;;;;;13.40;7.90;;;16.30;92.60;;;;;;5102222;28;20159;-81
2021/06/24 00:35:11;;;;;;;11.97;8.00;;;16.30;92.20;;;;;;5116618;28;20167;-82
2021/06/24 00:37:37;;;;;;;10.13;8.20;;;16.20;92.60;;;;;;5117358;28;20206;-83
2021/06/24 00:40:14;;;;;;;9.57;7.50;;;16.20;92.70;;;;;;5104969;28;20616;-83
2021/06/24 00:42:43;;;;;;;11.93;8.20;;;16.20;92.50;;;;;;5106063;28;20183;-83
2021/06/24 00:45:11;;;;;;;10.83;7.87;;;16.30;92.50;;;;;;5102273;28;20174;-81
2021/06/24 00:47:37;;;;;;;12.30;7.97;;;16.20;92.50;;;;;;5098633;28;20198;-82
2021/06/24 00:50:05;;;;;;;10.13;7.80;;;16.20;92.80;;;;;;5101381;28;20191;-82
2021/06/24 00:52:31;;;;;;;15.43;8.97;;;16.20;93.10;;;;;;5098434;28;20230;-80
2021/06/24 00:54:57;;;;;;;9.57;8.10;;;16.20;93.10;;;;;;5101360;28;20659;-82
2021/06/24 00:57:25;;;;;;;11.63;8.10;;;16.10;93.50;;;;;;5100962;28;20224;-82
2021/06/24 00:59:51;;;;;;;10.33;7.70;;;16.10;93.50;;;;;;5100609;28;20235;-83
2021/06/24 01:02:17;;;;;;;12.27;8.03;;;16.00;93.50;;;;;;5079534;28;20191;-83
2021/06/24 01:04:42;;;;;;;12.30;8.20;;;16.10;93.50;;;;;;5097304;28;20176;-82
2021/06/24 01:07:08;;;;;;;9.87;8.10;;;16.10;93.80;;;;;;5097241;28;20183;-84
2021/06/24 01:09:35;;;;;;;10.43;8.00;;;16.10;94.00;;;;;;5096579;28;20624;-83
2021/06/24 01:12:07;;;;;;;10.30;8.10;;;16.10;94.10;;;;;;5097307;28;20268;-81
2021/06/24 01:14:33;;;;;;;12.77;8.27;;;16.10;94.00;;;;;;5097322;28;20181;-83
2021/06/24 01:16:58;;;;;;;11.93;8.63;;;16.10;94.10;;;;;;5096811;28;20248;-82
2021/06/24 01:19:24;;;;;;;11.47;9.20;;;16.10;94.20;;;;;;5097612;28;20696;-82
2021/06/24 01:21:51;;;;;;;12.60;8.63;;;16.10;94.60;;;;;;5097462;28;20266;-81
2021/06/24 01:24:18;;;;;;;11.43;8.80;;;16.10;94.80;;;;;;5097123;28;20264;-83
2021/06/24 01:26:45;;;;;;;11.23;8.97;;;16.10;94.90;;;;;;5096509;28;20628;-84
2021/06/24 01:29:13;;;;;;;15.17;9.87;;;16.20;95.00;;;;;;5097716;28;20197;-85
2021/06/24 01:31:39;;;;;;;11.27;8.90;;;16.10;95.10;;;;;;5097180;28;20522;-82
2021/06/24 01:34:10;;;;;;;10.87;9.20;;;16.10;95.30;;;;;;5097963;28;20638;-80
2021/06/24 01:36:37;;;;;;;14.50;9.00;;;16.00;95.20;;;;;;5097227;28;20267;-82
2021/06/24 01:39:05;;;;;;;12.60;10.00;;;16.10;95.40;;;;;;5097559;28;20162;-82
2021/06/24 01:41:31;;;;;;;12.50;9.30;;;16.00;95.20;;;;;;5098772;28;20203;-83
2021/06/24 01:43:56;;;;;;;11.43;9.30;;;15.90;95.70;;;;;;5095994;28;20218;-82
2021/06/24 01:46:22;;;;;;;12.67;9.13;;;15.80;96.30;;;;;;5098305;28;20177;-82
2021/06/24 01:48:48;;;;;;;16.77;10.73;;;15.90;96.30;;;;;;5097480;28;20171;-83
2021/06/24 01:51:14;;;;;;;11.67;9.33;;;15.90;96.10;;;;;;5097133;28;20192;-83
2021/06/24 01:53:40;;;;;;;14.87;9.80;;;15.80;96.20;;;;;;5096545;28;20530;-81
2021/06/24 01:56:06;;;;;;;11.20;9.27;;;15.70;96.90;;;;;;5097719;28;20173;-83
2021/06/24 01:58:31;;;;;;;11.47;10.13;;;15.80;96.90;;;;;;5095452;28;20263;-84
2021/06/24 02:01:00;;;;;;;15.00;9.53;;;15.80;96.50;;;;;;5096613;28;20164;-81
2021/06/24 02:03:26;;;;;;;15.20;9.87;;;15.80;96.40;;;;;;5096265;28;20221;-82
2021/06/24 02:05:56;;;;;;;12.53;9.70;;;15.70;96.80;;;;;;5096765;28;20202;-82
2021/06/24 02:08:24;;;;;;;11.40;8.97;;;15.70;96.80;;;;;;5097825;28;20175;-83
2021/06/24 02:10:51;;;;;;;12.17;9.70;;;15.80;96.70;;;;;;5097197;28;20538;-83
2021/06/24 02:13:17;;;;;;;15.40;9.43;;;15.70;96.60;;;;;;5096425;28;20243;-81
2021/06/24 02:15:43;;;;;;;14.80;9.83;;;15.70;96.70;;;;;;5097378;28;20195;-83
2021/06/24 02:18:09;;;;;;;12.87;9.10;;;15.80;96.60;;;;;;5095508;28;20260;-84
2021/06/24 02:20:36;;;;;;;14.07;9.37;;;15.70;96.60;;;;;;5096358;28;20171;-84
2021/06/24 02:23:02;;;;;;;15.53;9.87;;;15.70;97.10;;;;;;5095429;28;20689;-83
2021/06/24 02:25:28;;;;;;;12.77;9.43;;;15.70;97.10;;;;;;5096530;28;20187;-84
2021/06/24 02:27:55;;;;;;;14.60;9.10;;;15.70;97.00;;;;;;5096397;28;20182;-84
2021/06/24 02:30:22;;;;;;;14.97;8.50;;;15.80;96.30;;;;;;5096226;28;20206;-82
2021/06/24 02:32:49;;;;;;;14.13;8.73;;;15.70;96.20;;;;;;5099375;28;20176;-83
2021/06/24 02:35:16;;;;;;;13.50;8.70;;;15.60;95.70;;;;;;5110889;28;20639;-81
2021/06/24 02:37:43;;;;;;;11.73;8.63;;;15.60;96.10;;;;;;5105368;28;20214;-83
2021/06/24 02:40:11;;;;;;;11.90;8.67;;;15.60;96.00;;;;;;5097010;28;20187;-84
2021/06/24 02:42:37;;;;;;;16.83;9.30;;;15.60;96.10;;;;;;5095048;28;20203;-83
2021/06/24 02:45:06;;;;;;;10.97;8.40;;;15.70;96.10;;;;;;5095247;28;20619;-83
2021/06/24 02:47:32;;;;;;;11.40;9.13;;;15.60;95.90;;;;;;5097277;28;20171;-83
2021/06/24 02:49:57;;;;;;;14.40;8.37;;;15.60;96.30;;;;;;5095881;28;20629;-81
2021/06/24 02:52:23;;;;;;;12.90;9.13;;;15.60;96.00;;;;;;5095545;28;20278;-84
2021/06/24 02:54:51;;;;;;;16.97;9.17;;;15.60;95.80;;;;;;5095588;28;20187;-82
2021/06/24 02:57:17;;;;;;;10.60;8.63;;;15.60;95.50;;;;;;5099060;28;20164;-82
2021/06/24 02:59:43;;;;;;;13.83;8.47;;;15.50;95.90;;;;;;5103660;28;20178;-84
2021/06/24 03:02:09;;;;;;;9.80;8.57;;;15.50;95.70;;;;;;5102575;28;20171;-82
2021/06/24 03:04:35;;;;;;;12.67;8.23;;;15.50;95.60;;;;;;5102611;28;20211;-82
2021/06/24 03:07:01;;;;;;;11.37;8.27;;;15.50;95.40;;;;;;5100050;28;20175;-82
2021/06/24 03:09:27;;;;;;;13.80;8.33;;;15.50;95.50;;;;;;5098221;28;20201;-83
2021/06/24 03:11:53;;;;;;;12.00;8.83;;;15.50;95.70;;;;;;5096516;28;20167;-83
2021/06/24 03:14:20;;;;;;;11.20;8.87;;;15.50;95.80;;;;;;5096851;28;20201;-83
2021/06/24 03:16:46;;;;;;;13.47;9.10;;;15.50;95.80;;;;;;5096249;28;20153;-83
2021/06/24 03:19:12;;;;;;;10.03;8.80;;;15.60;95.70;;;;;;5096757;28;20309;-85
2021/06/24 03:21:39;;;;;;;11.93;8.57;;;15.60;95.70;;;;;;5096182;28;20172;-82
2021/06/24 03:24:06;;;;;;;11.03;9.13;;;15.50;95.70;;;;;;5099402;28;20227;-83
2021/06/24 03:26:32;;;;;;;12.70;9.30;;;15.60;95.90;;;;;;5112929;28;20180;-84
2021/06/24 03:28:58;;;;;;;13.47;9.00;;;15.60;96.00;;;;;;5100051;28;20218;-83
2021/06/24 03:31:24;;;;;;;11.67;9.90;;;15.60;96.10;;;;;;5094828;28;20642;-83
2021/06/24 03:33:51;;;;;;;11.77;9.33;;;15.50;96.60;;;;;;5095860;28;20177;-83
2021/06/24 03:36:21;;;;;;;13.10;9.40;;;15.40;96.90;;;;;;5096021;28;20218;-81
2021/06/24 03:38:49;;;;;;;11.77;9.23;;;15.50;96.70;;;;;;5095327;28;20628;-83
2021/06/24 03:41:22;;;;;;;11.17;8.83;;;15.50;96.80;;;;;;5095192;28;20171;-83
2021/06/24 03:43:48;;;;;;;11.20;9.40;;;15.50;96.80;;;;;;5097648;28;20208;-83
2021/06/24 03:46:16;;;;;;;14.57;9.83;;;15.50;96.90;;;;;;5106543;28;20170;-80
2021/06/24 03:48:41;;;;;;;10.50;9.07;;;15.40;97.00;;;;;;5115143;28;20170;-82
2021/06/24 03:51:07;;;;;;;12.87;10.23;;;15.50;97.00;;;;;;5102620;28;20196;-82
2021/06/24 03:53:34;;;;;;;13.63;9.53;;;15.40;97.30;;;;;;5096066;28;20187;-83
2021/06/24 03:56:01;;;;;;;13.63;9.93;;;15.40;97.20;;;;;;5098399;28;20165;-83
2021/06/24 03:58:27;;;;;;;11.03;9.30;;;15.50;97.10;;;;;;5095477;28;20697;-83
2021/06/24 04:00:53;;;;;;;12.23;9.20;;;15.50;96.60;;;;;;5095004;28;20211;-84
2021/06/24 04:03:19;;;;;;;9.83;8.80;;;15.50;96.50;;;;;;5096279;28;20201;-83
2021/06/24 04:05:45;;;;;;;9.90;8.60;;;15.50;96.60;;;;;;5099002;28;20207;-82
2021/06/24 04:08:10;;;;;;;13.67;8.80;;;15.40;97.00;;;;;;5100648;28;20199;-83
2021/06/24 04:10:37;;;;;;;13.87;9.30;;;15.40;97.50;;;;;;5106428;28;20206;-83
2021/06/24 04:13:05;;;;;;;10.97;8.63;;;15.40;97.30;;;;;;5111483;28;20171;-83
2021/06/24 04:15:32;;;;;;;13.17;9.20;;;15.50;97.00;;;;;;5113624;28;20199;-80
2021/06/24 04:18:02;;;;;;;11.57;9.17;;;15.40;97.00;;;;;;5112662;28;20178;-81
2021/06/24 04:20:28;;;;;;;12.27;9.53;;;15.40;97.10;;;;;;5111013;28;20164;-82
2021/06/24 04:22:54;;;;;;;12.30;8.93;;;15.40;97.30;;;;;;5113256;28;20215;-80
2021/06/24 04:25:24;;;;;;;14.57;9.17;;;15.40;97.80;;;;;;5112509;28;20182;-80
2021/06/24 04:27:55;;;;;;;12.03;8.47;;;15.40;97.40;;;;;;5113772;28;20152;-84
2021/06/24 04:30:21;;;;;;;13.90;9.37;;;15.40;97.10;;;;;;5116041;28;20161;-83
2021/06/24 04:32:47;;;;;;;11.83;8.60;;;15.40;97.40;;;;;;5100352;28;20167;-81
2021/06/24 04:35:15;;;;;;;10.07;7.87;;;15.40;97.30;;;;;;5099029;28;20179;-81
2021/06/24 04:37:41;;;;;;;11.60;8.30;;;15.40;97.30;;;;;;5098862;28;20163;-83
2021/06/24 04:40:12;;;;;;;11.03;8.83;;;15.30;97.50;;;;;;5097220;28;20246;-82
2021/06/24 04:42:38;;;;;;;11.43;8.60;;;15.40;97.70;;;;;;5097467;28;20176;-81
2021/06/24 04:45:09;;;;;;;9.17;8.07;;;15.30;97.70;;;;;;5097411;28;20665;-86
2021/06/24 04:47:34;;;;;;;10.50;8.03;;;15.40;97.70;;;;;;5097513;28;20203;-83
2021/06/24 04:50:04;;;;;;;11.07;8.93;;;15.40;97.70;;;;;;5097986;28;20752;-83
2021/06/24 04:52:29;;;;;;;13.60;8.43;;;15.40;97.70;;;;;;5098721;28;20176;-81
2021/06/24 04:54:55;;;;;;;11.00;8.67;;;15.40;97.50;;;;;;5098657;28;20540;-80
2021/06/24 04:57:22;;;;;;;14.30;9.13;;;15.40;98.00;;;;;;5099133;28;20188;-81
2021/06/24 04:59:49;;;;;;;13.30;8.33;;;15.40;98.00;;;;;;5101528;28;20180;-82
2021/06/24 05:02:17;;;;;;;11.53;9.07;;;15.30;98.20;;;;;;5114334;28;20214;-83
2021/06/24 05:04:43;;;;;;;10.83;8.80;;;15.40;98.10;;;;;;5121264;28;20188;-81
2021/06/24 05:07:10;;;;;;;13.33;9.03;;;15.40;97.90;;;;;;5117939;28;20155;-81
2021/06/24 05:09:39;;;;;;;13.60;8.30;;;15.40;97.90;;;;;;5120331;28;20224;-78
2021/06/24 05:12:09;;;;;;;12.70;8.60;;;15.30;98.10;;;;;;5118241;28;20164;-84
2021/06/24 05:14:36;;;;;;;13.83;8.77;;;15.30;98.50;;;;;;5102249;28;20170;-83
2021/06/24 05:17:39;;;;;;;12.03;7.90;;;15.30;98.60;;;;;;5101158;28;20174;-84
2021/06/24 05:20:22;;;;;;;15.47;8.57;;;15.30;98.50;;;;;;5097361;28;20245;-83
2021/06/24 05:23:02;;;;;;;9.77;8.40;;;15.30;98.20;;;;;;5096867;28;20198;-83
2021/06/24 05:25:29;;;;;;;11.37;8.80;;;15.30;98.50;;;;;;5097562;28;20179;-82
2021/06/24 05:27:54;;;;;;;10.70;8.10;;;15.40;98.40;;;;;;5096397;28;20620;-83
2021/06/24 05:30:21;;;;;;;10.93;8.20;;;15.40;98.00;;;;;;5097486;28;20167;-84
2021/06/24 05:32:46;;;;;;;13.70;8.70;;;15.50;98.20;;;;;;5096305;28;20167;-83
2021/06/24 05:35:12;;;;;;;11.03;8.13;;;15.50;98.00;;;;;;5097372;28;20184;-83
2021/06/24 05:37:39;;;;;;;14.97;9.03;;;15.40;97.80;;;;;;5096576;28;20232;-83
2021/06/24 05:40:06;;;;;;;13.23;8.90;;;15.40;98.30;;;;;;5095348;28;20179;-82
2021/06/24 05:42:31;;;;;;;13.93;8.43;;;15.40;97.80;;;;;;5095531;28;20199;-85
2021/06/24 05:44:57;;;;;;;13.23;8.73;;;15.40;97.90;;;;;;5097173;28;20171;-83
2021/06/24 05:47:23;;;;;;;17.23;9.90;;;15.40;98.30;;;;;;5096472;28;20589;-82
2021/06/24 05:49:48;;;;;;;12.10;9.13;;;15.60;98.40;;;;;;5097380;28;20175;-83
2021/06/24 05:52:14;;;;;;;12.00;8.80;;;15.40;98.40;;;;;;5095646;28;20285;-82
2021/06/24 05:54:40;;;;;;;14.07;8.60;;;15.40;98.80;;;;;;5094427;28;20259;-82
2021/06/24 05:57:06;;;;;;;12.73;8.70;;;15.30;98.60;;;;;;5098218;28;20226;-83
2021/06/24 05:59:33;;;;;;;13.73;9.37;;;15.30;98.60;;;;;;5098086;28;20179;-84
2021/06/24 06:02:02;;;;;;;9.83;8.80;;;15.40;98.40;;;;;;5096704;28;20169;-83
2021/06/24 06:04:27;;;;;;;13.07;9.20;;;15.50;98.10;;;;;;5078219;28;20211;-83
2021/06/24 06:06:53;;;;;;;14.37;9.03;;;15.50;97.70;;;;;;5096932;28;20168;-83
2021/06/24 06:09:19;;;;;;;13.47;9.40;;;15.50;98.00;;;;;;5096063;28;20172;-82
2021/06/24 06:11:44;;;;;;;15.27;8.93;;;15.50;97.80;;;;;;5102349;28;20609;-81
2021/06/24 06:14:11;;;;;;;11.70;8.57;;;15.50;98.10;;;;;;5102134;28;20619;-81
2021/06/24 06:16:37;;;;;;;11.53;8.90;;;15.50;97.70;;;;;;5101324;28;20257;-80
2021/06/24 06:19:03;;;;;;;12.13;9.03;;;15.50;98.20;;;;;;5103047;28;20265;-84
2021/06/24 06:21:30;;;;;;;9.87;8.87;;;15.60;97.80;;;;;;5103669;28;20186;-82
2021/06/24 06:23:57;;;;;;;14.83;10.00;;;15.50;97.80;;;;;;5103299;28;20220;-82
2021/06/24 06:26:24;;;;;;;13.13;9.80;;;15.60;98.20;;;;;;5103669;28;20192;-82
2021/06/24 06:28:51;;;;;;;17.53;9.93;;;15.80;97.90;;;;;;5102121;28;20180;-83
2021/06/24 06:31:18;;;;;;;14.23;9.80;;;15.70;97.80;;;;;;5096935;28;20190;-83
2021/06/24 06:33:44;;;;;;;11.93;8.90;;;15.70;97.40;;;;;;5091665;28;20275;-83
2021/06/24 06:36:09;;;;;;;14.90;9.80;;;15.70;96.90;;;;;;5095197;28;20205;-82
2021/06/24 06:38:35;;;;;;;12.97;10.13;;;15.80;97.20;;;;;;5095084;28;20181;-81
2021/06/24 06:41:01;;;;;;;12.07;9.40;;;16.00;96.10;;;;;;5097507;28;20667;-83
2021/06/24 06:43:27;;;;;;;14.27;10.07;;;16.00;95.70;;;;;;5096331;28;20217;-82
2021/06/24 06:45:54;;;;;;;12.60;9.20;;;16.10;95.90;;;;;;5097256;28;20213;-84
2021/06/24 06:48:20;;;;;;;13.80;9.10;;;16.30;94.80;;;;;;5097251;28;20175;-82
2021/06/24 06:50:46;;;;;;;14.57;9.27;;;16.40;94.40;;;;;;5094700;28;20203;-83
2021/06/24 06:53:12;;;;;;;13.40;9.00;;;16.50;93.40;;;;;;5095628;28;20195;-84
2021/06/24 06:55:39;;;;;;;11.53;9.47;;;16.50;93.80;;;;;;5096479;28;20288;-80
2021/06/24 06:58:05;;;;;;;14.33;9.10;;;16.60;93.00;;;;;;5096066;28;20356;-82
2021/06/24 07:00:33;;;;;;;12.90;8.93;;;16.60;92.60;;;;;;5096816;28;20541;-81
2021/06/24 07:03:04;;;;;;;9.77;7.57;;;16.60;92.40;;;;;;5098262;28;20650;-82
2021/06/24 07:05:31;;;;;;;12.63;8.83;;;16.80;91.40;;;;;;5097353;28;20529;-81
2021/06/24 07:07:58;;;;;;;10.53;8.40;;;16.80;90.80;;;;;;5080109;28;20247;-82
2021/06/24 07:10:25;;;;;;;11.03;7.97;;;16.80;91.20;;;;;;5097491;28;20176;-81
2021/06/24 07:12:52;;;;;;;11.57;7.87;;;16.70;91.20;;;;;;5098990;28;20211;-84
2021/06/24 07:15:19;;;;;;;11.63;8.70;;;16.70;90.50;;;;;;5096073;28;20194;-80
2021/06/24 07:17:45;;;;;;;13.43;8.20;;;16.70;90.50;;;;;;5102459;28;20171;-82
2021/06/24 07:20:12;;;;;;;11.93;8.00;;;16.70;90.40;;;;;;5111311;28;20233;-81
2021/06/24 07:22:38;;;;;;;10.23;7.87;;;16.70;90.30;;;;;;5107153;28;20179;-80
2021/06/24 07:25:07;;;;;;;12.00;7.80;;;16.60;90.40;;;;;;5103555;28;20192;-82
2021/06/24 07:27:32;;;;;;;12.47;7.30;;;16.70;89.90;;;;;;5095874;28;20202;-80
2021/06/24 07:29:58;;;;;;;10.03;7.27;;;16.80;88.00;;;;;;5099391;28;20188;-83
2021/06/24 07:32:25;;;;;;;12.50;8.03;;;17.00;87.30;;;;;;5097022;28;20178;-83
2021/06/24 07:34:50;;;;;;;11.30;8.33;;;16.90;88.80;;;;;;5094945;28;20257;-81
2021/06/24 07:37:16;;;;;;;12.27;8.17;;;16.90;87.70;;;;;;5093450;28;20211;-82
2021/06/24 07:39:42;;;;;;;13.00;8.77;;;17.10;86.90;;;;;;5094270;28;20515;-82
2021/06/24 07:42:08;;;;;;;15.17;8.27;;;17.30;86.50;;;;;;5077170;28;20187;-81
2021/06/24 07:44:33;;;;;;;11.20;7.43;;;17.40;85.40;;;;;;5093086;28;20268;-82
2021/06/24 07:46:59;;;;;;;11.60;7.30;;;17.40;81.10;;;;;;5094290;28;20255;-81
2021/06/24 07:49:25;;;;;;;12.13;7.30;;;17.30;82.60;;;;;;5095016;28;20214;-81
2021/06/24 07:51:51;;;;;;;9.27;6.90;;;17.40;82.00;;;;;;5093979;28;20203;-81
2021/06/24 07:54:17;;;;;;;12.97;6.60;;;17.40;77.80;;;;;;5095616;28;20204;-82
2021/06/24 07:56:44;;;;;;;10.77;7.63;;;17.50;77.80;;;;;;5094419;28;20177;-83
2021/06/24 07:59:12;;;;;;;10.77;7.03;;;17.50;77.80;;;;;;5099724;28;20195;-83
2021/06/24 08:01:38;;;;;;;10.70;6.70;;;17.60;78.40;;;;;;5107596;28;20183;-81
2021/06/24 08:04:06;;;;;;;9.43;7.03;;;17.60;77.70;;;;;;5122684;28;20206;-81
2021/06/24 08:06:32;;;;;;;10.03;7.00;;;17.50;76.50;;;;;;5119503;28;20175;-83
2021/06/24 08:08:58;;;;;;;12.60;7.60;;;17.50;76.50;;;;;;5118733;28;20169;-82
2021/06/24 08:11:24;;;;;;;10.07;7.07;;;17.50;77.10;;;;;;5118355;28;20163;-82
2021/06/24 08:13:50;;;;;;;14.37;7.93;;;17.40;78.00;;;;;;5118065;28;20528;-82
2021/06/24 08:16:16;;;;;;;12.10;7.87;;;17.40;78.80;;;;;;5106431;28;20176;-82
2021/06/24 08:18:42;;;;;;;11.20;7.27;;;17.40;77.90;;;;;;5097228;28;20178;-80
2021/06/24 08:21:09;;;;;;;8.80;7.30;;;17.20;78.20;;;;;;5099027;28;20616;-81
2021/06/24 08:23:37;;;;;;;13.63;8.07;;;17.30;78.80;;;;;;5097444;28;20211;-81
2021/06/24 08:26:04;;;;;;;12.67;7.87;;;17.40;78.00;;;;;;5096437;28;20262;-81
2021/06/24 08:28:30;;;;;;;10.90;7.77;;;17.40;75.00;;;;;;5096940;28;20194;-81
2021/06/24 08:30:59;;;;;;;9.33;7.57;;;17.40;73.20;;;;;;5097155;28;20744;-83
2021/06/24 08:33:25;;;;;;;13.87;8.20;;;17.40;74.60;;;;;;5102447;28;20170;-82
2021/06/24 08:35:51;;;;;;;10.57;7.80;;;17.60;76.40;;;;;;5103535;28;20183;-82
2021/06/24 08:38:17;;;;;;;13.27;8.13;;;17.70;74.50;;;;;;5105078;28;20389;-82
2021/06/24 08:40:42;;;;;;;12.80;8.13;;;17.90;69.80;;;;;;5104527;28;20171;-81
2021/06/24 08:43:09;;;;;;;11.37;8.03;;;17.80;69.60;;;;;;5104659;28;20230;-83
2021/06/24 08:45:39;;;;;;;11.30;7.83;;;17.80;64.10;;;;;;5102531;28;20164;-82
2021/06/24 08:48:13;;;;;;;13.03;7.90;;;17.70;64.60;;;;;;5104166;28;20195;-82
2021/06/24 08:50:48;;;;;;;13.53;8.00;;;17.80;62.00;;;;;;5102247;28;20211;-82
2021/06/24 08:53:18;;;;;;;11.93;7.90;;;18.00;61.10;;;;;;5101371;28;20253;-81
2021/06/24 08:55:46;;;;;;;14.97;8.27;;;18.10;60.00;;;;;;5103261;28;20182;-81
2021/06/24 08:58:13;;;;;;;11.77;8.80;;;18.20;61.00;;;;;;5095118;28;20523;-81
2021/06/24 09:00:39;;;;;;;14.30;8.60;;;18.30;53.90;;;;;;5096121;28;20172;-81
2021/06/24 09:03:20;;;;;;;8.83;7.17;;;18.30;51.70;;;;;;5095787;28;20202;-82
2021/06/24 09:05:48;;;;;;;9.57;7.80;;;18.20;55.00;;;;;;5096388;28;20213;-82
2021/06/24 09:08:25;;;;;;;10.13;7.97;;;18.20;49.10;;;;;;5096228;28;20175;-80
2021/06/24 09:11:07;;;;;;;10.67;8.17;;;18.10;52.20;;;;;;5096875;28;20198;-83
2021/06/24 09:13:33;;;;;;;12.00;8.43;;;18.10;54.10;;;;;;5096599;28;20168;-81
2021/06/24 09:16:24;;;;;;;14.47;9.07;;;18.20;57.70;;;;;;5097382;28;20244;-81
2021/06/24 09:18:50;;;;;;;13.33;8.60;;;18.10;54.10;;;;;;5095943;28;20176;-80
2021/06/24 09:21:20;;;;;;;9.80;7.57;;;18.30;55.80;;;;;;5097260;28;20222;-82
2021/06/24 09:23:48;;;;;;;10.20;8.73;;;18.40;52.60;;;;;;5096261;28;20697;-81
2021/06/24 09:26:15;;;;;;;11.87;8.87;;;18.30;50.80;;;;;;5097697;28;20248;-81
2021/06/24 09:28:45;;;;;;;11.57;8.47;;;18.40;52.90;;;;;;5096685;28;20191;-81
2021/06/24 09:31:25;;;;;;;10.97;7.67;;;18.20;36.50;;;;;;5096394;28;20580;-82
2021/06/24 09:33:53;;;;;;;11.90;7.77;;;18.00;38.90;;;;;;5096549;28;20635;-81
2021/06/24 09:36:38;;;;;;;10.13;8.10;;;18.00;42.60;;;;;;5099617;28;20171;-81
2021/06/24 09:39:08;;;;;;;9.70;7.40;;;18.00;42.00;;;;;;5099440;28;20163;-80
2021/06/24 09:41:37;;;;;;;10.90;8.43;;;18.00;39.50;;;;;;5108281;28;20171;-82
2021/06/24 09:44:22;;;;;;;13.97;8.90;;;18.10;42.60;;;;;;5111067;28;20212;-80
2021/06/24 09:46:48;;;;;;;12.13;8.80;;;18.10;44.80;;;;;;5110061;28;20187;-80
2021/06/24 09:49:29;;;;;;;14.63;9.17;;;18.30;44.60;;;;;;5114464;28;20159;-80
2021/06/24 09:51:56;;;;;;;12.57;9.43;;;18.30;48.00;;;;;;5112056;28;20198;-84
2021/06/24 09:54:42;;;;;;;13.03;8.97;;;18.40;40.20;;;;;;5098222;28;20183;-82
2021/06/24 09:57:08;;;;;;;10.90;8.47;;;18.30;47.20;;;;;;5095686;28;20539;-82
2021/06/24 09:59:43;;;;;;;11.40;8.97;;;18.40;48.90;;;;;;5096545;28;20228;-82
2021/06/24 10:02:13;;;;;;;16.43;8.97;;;18.40;47.80;;;;;;5097038;28;20171;-81
2021/06/24 10:04:43;;;;;;;13.33;10.00;;;18.60;46.20;;;;;;5096224;28;20583;-82
2021/06/24 10:07:16;;;;;;;10.57;8.67;;;18.50;47.20;;;;;;5096704;28;20536;-81
2021/06/24 10:09:43;;;;;;;14.40;9.20;;;18.50;49.00;;;;;;5095094;28;20219;-82
2021/06/24 10:12:11;;;;;;;13.77;10.03;;;18.70;47.80;;;;;;5097009;28;20173;-81
2021/06/24 10:14:39;;;;;;;15.17;9.60;;;18.60;45.20;;;;;;5094845;28;20176;-82
2021/06/24 10:17:06;;;;;;;12.30;9.30;;;18.90;46.30;;;;;;5096750;28;20176;-81
2021/06/24 10:19:36;;;;;;;14.17;9.67;;;19.10;39.40;;;;;;5095378;28;20179;-82
2021/06/24 10:22:24;;;;;;;13.93;9.60;;;18.90;39.90;;;;;;5094169;28;20184;-81
2021/06/24 10:25:02;;;;;;;14.43;10.07;;;18.90;41.30;;;;;;5094195;28;20226;-83
2021/06/24 10:27:34;;;;;;;15.67;10.63;;;19.00;38.50;;;;;;5098577;28;20160;-82
2021/06/24 10:30:17;;;;;;;15.30;10.83;;;19.10;40.90;;;;;;5098542;28;20624;-81
2021/06/24 10:33:06;;;;;;;15.60;13.80;;;19.10;41.00;;;;;;5075662;28;20179;-81
2021/06/24 10:35:33;;;;;;;14.70;11.97;;;18.90;41.00;;;;;;5076018;28;20174;-82
2021/06/24 10:38:03;;;;;;;16.23;12.97;;;18.80;47.60;;;;;;5073613;28;20183;-83
2021/06/24 10:40:35;;;;;;;16.57;14.07;;;18.70;47.60;;;;;;5075442;28;20164;-83
2021/06/24 10:43:06;;;;;;;14.43;13.03;;;18.60;48.90;;;;;;5075543;28;20647;-81
2021/06/24 10:45:32;;;;;;;18.80;13.70;;;18.40;50.30;;;;;;5076240;28;20182;-83
2021/06/24 10:48:19;;;;;;;17.53;13.90;;;18.30;51.20;;;;;;5075074;28;20259;-81
2021/06/24 10:50:44;;;;;;;20.53;15.83;;;18.40;49.90;;;;;;5087339;28;20284;-81
2021/06/24 10:53:10;;;;;;;19.57;14.80;;;18.40;55.80;;;;;;5093748;28;20187;-81
2021/06/24 10:55:41;;;;;;;22.03;16.87;;;18.40;60.60;;;;;;5093280;28;20514;-81
2021/06/24 10:58:13;;;;;;;20.90;15.70;;;18.30;64.00;;;;;;5095626;28;20188;-80
2021/06/24 11:00:58;;;;;;;15.93;14.30;;;18.50;60.40;;;;;;5093619;28;20218;-81
2021/06/24 11:03:36;;;;;;;22.57;17.70;;;18.50;56.50;;;;;;5093989;28;20207;-81
2021/06/24 11:06:23;;;;;;;22.40;18.63;;;18.40;61.00;;;;;;5094839;28;20174;-82
2021/06/24 11:09:12;;;;;;;16.63;14.30;;;18.40;62.10;;;;;;5093220;28;20231;-81
2021/06/24 11:11:43;;;;;;;15.93;13.63;;;18.40;53.80;;;;;;5094406;28;20205;-81
2021/06/24 11:14:15;;;;;;;14.10;12.67;;;18.40;52.40;;;;;;5095984;28;20175;-80
2021/06/24 11:16:44;;;;;;;18.60;16.57;;;18.50;51.50;;;;;;5094572;28;20173;-83
2021/06/24 11:19:14;;;;;;;17.20;15.40;;;18.40;56.50;;;;;;5095801;28;20172;-81
2021/06/24 11:21:39;;;;;;;19.67;17.57;;;18.40;57.10;;;;;;5092809;28;20253;-81
2021/06/24 11:24:05;;;;;;;20.87;17.70;;;18.40;56.40;;;;;;5091900;28;20239;-83
2021/06/24 11:26:35;;;;;;;19.53;16.40;;;18.60;58.20;;;;;;5094217;28;20176;-81
2021/06/24 11:32:10;;;;;;;18.87;14.53;;;18.80;45.90;;;;;;5094882;28;20326;-79
2021/06/24 11:37:17;;;;;;;16.87;14.57;;;18.70;50.80;;;;;;5095173;28;20176;-82
2021/06/24 11:39:50;;;;;;;19.10;16.20;;;18.90;48.10;;;;;;5092949;28;20167;-81
2021/06/24 11:42:19;;;;;;;17.80;15.20;;;19.00;49.00;;;;;;5092670;28;20186;-81
2021/06/24 11:44:49;;;;;;;16.60;14.90;;;19.20;45.80;;;;;;5091806;28;20305;-83
2021/06/24 11:47:21;;;;;;;20.40;17.90;;;19.20;45.80;;;;;;5094263;28;20164;-81
2021/06/24 12:03:49;;;;;;;22.67;18.77;;;19.10;43.00;;;;;;5093812;28;20207;-82
2021/06/24 12:06:15;;;;;;;21.13;19.13;;;19.00;46.60;;;;;;5091947;28;20186;-81
2021/06/24 12:08:41;;;;;;;21.83;19.13;;;19.00;45.30;;;;;;5093357;28;20172;-79
2021/06/24 12:11:12;;;;;;;22.03;19.67;;;18.90;46.50;;;;;;5093391;28;20176;-81
2021/06/24 12:13:41;;;;;;;22.13;18.93;;;18.90;49.50;;;;;;5091915;28;20183;-82
2021/06/24 12:16:12;;;;;;;23.80;21.40;;;18.90;47.30;;;;;;5094455;28;20580;-81
2021/06/24 12:18:43;;;;;;;22.03;18.43;;;18.80;48.20;;;;;;5094907;28;20226;-80
2021/06/24 12:21:11;;;;;;;23.17;19.47;;;18.80;50.30;;;;;;5095219;28;20259;-80
2021/06/24 12:23:43;;;;;;;22.53;18.13;;;18.90;50.80;;;;;;5094567;28;20210;-82
2021/06/24 12:26:10;;;;;;;18.87;17.03;;;18.70;49.90;;;;;;5093758;28;20191;-82
2021/06/24 12:28:36;;;;;;;21.47;18.40;;;18.80;49.20;;;;;;5093479;28;20214;-81
2021/06/24 12:31:04;;;;;;;19.40;17.50;;;18.70;49.70;;;;;;5100100;28;20248;-81
2021/06/24 12:33:30;;;;;;;22.83;17.73;;;18.90;48.00;;;;;;5100267;28;20203;-80
2021/06/24 12:35:57;;;;;;;20.47;18.30;;;18.90;47.50;;;;;;5099129;28;20172;-79
2021/06/24 12:38:25;;;;;;;22.70;17.77;;;18.90;49.30;;;;;;5107124;22;20312;-82
2021/06/24 12:40:55;;;;;;;19.33;16.30;;;19.00;48.20;;;;;;5021567;28;20189;-81
2021/06/24 12:43:24;;;;;;;18.50;16.60;;;19.00;47.40;;;;;;5016176;28;20198;-80
2021/06/24 12:45:53;;;;;;;18.53;16.67;;;19.10;46.40;;;;;;5016077;28;20170;-81
2021/06/24 12:48:33;;;;;;;19.50;16.27;;;19.30;45.20;;;;;;5015340;28;20174;-81
2021/06/24 12:51:03;;;;;;;17.20;14.43;;;19.30;42.00;;;;;;5018907;28;20197;-81
2021/06/24 12:53:44;;;;;;;18.77;15.17;;;19.10;44.00;;;;;;5018267;28;20179;-80
2021/06/24 12:56:31;;;;;;;16.97;15.23;;;18.90;46.60;;;;;;5015326;28;20180;-79
2021/06/24 12:59:18;;;;;;;22.70;20.10;;;18.90;47.20;;;;;;5018169;28;20191;-81
2021/06/24 13:01:45;;;;;;;22.13;19.63;;;18.90;47.30;;;;;;5016939;28;20272;-80